createdAt,value
2016-10-10T00:00:25.953Z,0
2016-10-10T00:01:25.952Z,0
2016-10-10T00:02:25.966Z,0
2016-10-10T00:03:26.103Z,0
2016-10-10T00:04:26.113Z,0
2016-10-10T00:05:26.121Z,0
2016-10-10T00:06:26.143Z,0
2016-10-10T00:07:26.151Z,0
2016-10-10T00:08:26.067Z,0
2016-10-10T00:09:26.187Z,0
2016-10-10T00:10:26.186Z,0
2016-10-10T00:11:26.228Z,0
2016-10-10T00:12:26.226Z,0
2016-10-10T00:13:26.241Z,0
2016-10-10T00:14:26.244Z,0
2016-10-10T00:15:26.250Z,0
2016-10-10T00:16:26.252Z,0
2016-10-10T00:17:26.262Z,0
2016-10-10T00:18:26.272Z,0
2016-10-10T00:19:26.278Z,0
2016-10-10T00:20:26.288Z,0
2016-10-10T00:21:26.395Z,0
2016-10-10T00:22:26.315Z,0
2016-10-10T00:23:26.334Z,0
2016-10-10T00:24:26.348Z,0
2016-10-10T00:25:26.363Z,0
2016-10-10T00:26:26.386Z,0
2016-10-10T00:27:26.402Z,0
2016-10-10T00:28:26.424Z,0
2016-10-10T00:29:26.435Z,0
2016-10-10T00:30:26.457Z,0
2016-10-10T00:31:26.477Z,0
2016-10-10T00:32:26.498Z,0
2016-10-10T00:33:26.503Z,0
2016-10-10T00:34:26.517Z,0
2016-10-10T00:35:26.537Z,0
2016-10-10T00:36:26.551Z,0
2016-10-10T00:37:26.579Z,0
2016-10-10T00:38:26.590Z,0
2016-10-10T00:39:26.606Z,0
2016-10-10T00:40:26.620Z,0
2016-10-10T00:41:26.640Z,0
2016-10-10T00:42:26.652Z,0
2016-10-10T00:43:26.676Z,0
2016-10-10T00:44:26.695Z,0
2016-10-10T00:45:26.712Z,0
2016-10-10T00:46:26.723Z,0
2016-10-10T00:47:26.736Z,0
2016-10-10T00:48:26.753Z,0
2016-10-10T00:49:26.769Z,0
2016-10-10T00:50:26.789Z,0
2016-10-10T00:51:26.798Z,0
2016-10-10T00:52:26.978Z,0
2016-10-10T00:53:26.943Z,0
2016-10-10T00:54:26.856Z,0
2016-10-10T00:55:26.869Z,0
2016-10-10T00:56:26.889Z,0
2016-10-10T00:57:26.899Z,0
2016-10-10T00:58:26.923Z,0
2016-10-10T00:59:26.955Z,0
2016-10-10T01:00:26.956Z,0
2016-10-10T01:01:26.973Z,0
2016-10-10T01:02:26.989Z,0
2016-10-10T01:03:27.010Z,0
2016-10-10T01:04:27.035Z,0
2016-10-10T01:05:27.045Z,0
2016-10-10T01:06:27.055Z,0
2016-10-10T01:07:27.074Z,0
2016-10-10T01:08:27.084Z,0
2016-10-10T01:09:27.114Z,0
2016-10-10T01:10:27.121Z,0
2016-10-10T01:11:27.143Z,0
2016-10-10T01:12:27.153Z,0
2016-10-10T01:13:27.181Z,0
2016-10-10T01:14:27.500Z,0
2016-10-10T01:15:27.206Z,0
2016-10-10T01:16:27.228Z,0
2016-10-10T01:17:27.242Z,0
2016-10-10T01:18:27.253Z,0
2016-10-10T01:19:27.272Z,0
2016-10-10T01:20:27.296Z,0
2016-10-10T01:21:27.307Z,0
2016-10-10T01:22:27.328Z,0
2016-10-10T01:23:27.340Z,0
2016-10-10T01:24:27.367Z,0
2016-10-10T01:25:27.370Z,0
2016-10-10T01:26:27.388Z,0
2016-10-10T01:27:27.406Z,0
2016-10-10T01:28:27.426Z,0
2016-10-10T01:29:27.444Z,0
2016-10-10T01:30:27.469Z,0
2016-10-10T01:31:27.480Z,0
2016-10-10T01:32:27.494Z,0
2016-10-10T01:33:27.518Z,0
2016-10-10T01:34:27.531Z,0
2016-10-10T01:35:27.684Z,0
2016-10-10T01:36:27.635Z,0
2016-10-10T01:37:27.574Z,0
2016-10-10T01:38:27.595Z,0
2016-10-10T01:39:27.606Z,0
2016-10-10T01:40:27.639Z,0
2016-10-10T01:41:27.644Z,0
2016-10-10T01:42:27.661Z,0
2016-10-10T01:43:27.671Z,0
2016-10-10T01:44:27.749Z,0
2016-10-10T01:45:27.705Z,0
2016-10-10T01:46:27.728Z,0
2016-10-10T01:47:27.741Z,0
2016-10-10T01:48:27.785Z,0
2016-10-10T01:49:27.772Z,0
2016-10-10T01:50:27.795Z,0
2016-10-10T01:51:27.817Z,0
2016-10-10T01:52:27.831Z,0
2016-10-10T01:53:27.840Z,0
2016-10-10T01:54:27.878Z,0
2016-10-10T01:55:27.873Z,0
2016-10-10T01:56:27.901Z,0
2016-10-10T01:57:27.913Z,0
2016-10-10T01:58:27.929Z,0
2016-10-10T01:59:27.945Z,0
2016-10-10T02:00:27.964Z,0
2016-10-10T02:01:27.997Z,0
2016-10-10T02:02:28.006Z,0
2016-10-10T02:03:28.015Z,0
2016-10-10T02:04:28.052Z,0
2016-10-10T02:05:28.050Z,0
2016-10-10T02:06:28.062Z,0
2016-10-10T02:07:28.083Z,0
2016-10-10T02:08:28.097Z,0
2016-10-10T02:09:28.109Z,0
2016-10-10T02:10:28.130Z,0
2016-10-10T02:11:28.141Z,0
2016-10-10T02:12:28.185Z,0
2016-10-10T02:13:28.184Z,0
2016-10-10T02:14:28.330Z,0
2016-10-10T02:15:28.216Z,0
2016-10-10T02:16:28.232Z,0
2016-10-10T02:17:28.255Z,0
2016-10-10T02:18:28.265Z,0
2016-10-10T02:19:28.399Z,0
2016-10-10T02:20:28.418Z,0
2016-10-10T02:21:28.459Z,0
2016-10-10T02:22:28.331Z,0
2016-10-10T02:23:28.353Z,0
2016-10-10T02:24:28.535Z,0
2016-10-10T02:25:28.382Z,0
2016-10-10T02:26:28.521Z,0
2016-10-10T02:27:28.419Z,0
2016-10-10T02:28:28.438Z,0
2016-10-10T02:29:28.441Z,0
2016-10-10T02:30:28.473Z,0
2016-10-10T02:31:28.477Z,0
2016-10-10T02:32:28.570Z,0
2016-10-10T02:33:28.514Z,0
2016-10-10T02:34:28.620Z,0
2016-10-10T02:35:28.547Z,0
2016-10-10T02:36:28.772Z,0
2016-10-10T02:37:28.579Z,0
2016-10-10T02:38:28.597Z,0
2016-10-10T02:39:28.614Z,0
2016-10-10T02:40:28.633Z,0
2016-10-10T02:41:28.665Z,0
2016-10-10T02:42:28.672Z,0
2016-10-10T02:43:28.682Z,0
2016-10-10T02:44:28.698Z,0
2016-10-10T02:45:28.727Z,0
2016-10-10T02:46:28.733Z,0
2016-10-10T02:47:28.764Z,0
2016-10-10T02:48:28.883Z,0
2016-10-10T02:49:28.795Z,0
2016-10-10T02:50:28.913Z,0
2016-10-10T02:51:28.819Z,0
2016-10-10T02:52:28.841Z,0
2016-10-10T02:53:28.850Z,0
2016-10-10T02:54:28.977Z,0
2016-10-10T02:55:29.001Z,0
2016-10-10T02:56:28.913Z,0
2016-10-10T02:57:28.922Z,0
2016-10-10T02:58:29.389Z,0
2016-10-10T02:59:29.068Z,0
2016-10-10T03:00:29.066Z,0
2016-10-10T03:01:29.154Z,0
2016-10-10T03:02:28.999Z,0
2016-10-10T03:03:29.021Z,0
2016-10-10T03:04:29.163Z,0
2016-10-10T03:05:29.134Z,0
2016-10-10T03:06:29.283Z,0
2016-10-10T03:07:29.192Z,0
2016-10-10T03:08:29.114Z,0
2016-10-10T03:09:29.112Z,0
2016-10-10T03:10:29.136Z,0
2016-10-10T03:11:29.150Z,0
2016-10-10T03:12:29.372Z,0
2016-10-10T03:13:29.291Z,0
2016-10-10T03:14:29.397Z,0
2016-10-10T03:15:29.302Z,0
2016-10-10T03:16:29.348Z,0
2016-10-10T03:17:29.563Z,0
2016-10-10T03:18:29.329Z,0
2016-10-10T03:19:29.488Z,0
2016-10-10T03:20:29.306Z,0
2016-10-10T03:21:29.333Z,0
2016-10-10T03:22:29.341Z,0
2016-10-10T03:23:29.429Z,0
2016-10-10T03:24:29.480Z,0
2016-10-10T03:25:29.462Z,0
2016-10-10T03:26:29.405Z,0
2016-10-10T03:27:29.421Z,0
2016-10-10T03:28:29.452Z,0
2016-10-10T03:29:29.762Z,0
2016-10-10T03:30:29.473Z,0
2016-10-10T03:31:29.512Z,0
2016-10-10T03:32:29.653Z,0
2016-10-10T03:33:29.561Z,0
2016-10-10T03:34:29.538Z,0
2016-10-10T03:35:29.868Z,0
2016-10-10T03:36:29.574Z,0
2016-10-10T03:37:29.831Z,0
2016-10-10T03:38:30.086Z,0
2016-10-10T03:39:29.850Z,0
2016-10-10T03:40:29.712Z,0
2016-10-10T03:41:29.721Z,0
2016-10-10T03:42:29.730Z,0
2016-10-10T03:43:29.798Z,0
2016-10-10T03:44:29.800Z,0
2016-10-10T03:45:29.806Z,0
2016-10-10T03:46:29.815Z,0
2016-10-10T03:47:29.823Z,0
2016-10-10T03:48:29.832Z,0
2016-10-10T03:49:29.784Z,0
2016-10-10T03:50:29.840Z,0
2016-10-10T03:51:29.965Z,0
2016-10-10T03:52:29.839Z,0
2016-10-10T03:53:29.877Z,0
2016-10-10T03:54:29.991Z,0
2016-10-10T03:55:29.990Z,0
2016-10-10T03:56:29.929Z,0
2016-10-10T03:57:30.249Z,0
2016-10-10T03:58:30.252Z,0
2016-10-10T03:59:29.962Z,0
2016-10-10T04:00:29.979Z,0
2016-10-10T04:01:30.310Z,0
2016-10-10T04:02:30.129Z,0
2016-10-10T04:03:30.023Z,0
2016-10-10T04:04:30.167Z,0
2016-10-10T04:05:30.151Z,0
2016-10-10T04:06:30.094Z,0
2016-10-10T04:07:30.517Z,0
2016-10-10T04:08:30.108Z,0
2016-10-10T04:09:30.443Z,0
2016-10-10T04:10:30.136Z,0
2016-10-10T04:11:30.200Z,0
2016-10-10T04:12:30.174Z,0
2016-10-10T04:13:30.192Z,0
2016-10-10T04:14:30.374Z,0
2016-10-10T04:15:30.275Z,0
2016-10-10T04:16:30.238Z,0
2016-10-10T04:17:30.254Z,0
2016-10-10T04:18:30.273Z,0
2016-10-10T04:19:30.291Z,0
2016-10-10T04:20:30.392Z,0
2016-10-10T04:21:30.411Z,0
2016-10-10T04:22:30.417Z,0
2016-10-10T04:23:30.488Z,0
2016-10-10T04:24:30.459Z,0
2016-10-10T04:25:30.472Z,0
2016-10-10T04:26:30.474Z,0
2016-10-10T04:27:30.506Z,0
2016-10-10T04:28:30.767Z,0
2016-10-10T04:29:30.479Z,0
2016-10-10T04:30:30.485Z,0
2016-10-10T04:31:30.495Z,0
2016-10-10T04:32:30.516Z,0
2016-10-10T04:33:30.529Z,0
2016-10-10T04:34:30.544Z,0
2016-10-10T04:35:30.881Z,0
2016-10-10T04:36:30.575Z,0
2016-10-10T04:37:30.596Z,0
2016-10-10T04:38:30.613Z,0
2016-10-10T04:39:30.633Z,0
2016-10-10T04:40:30.643Z,0
2016-10-10T04:41:30.660Z,0
2016-10-10T04:42:30.672Z,0
2016-10-10T04:43:30.698Z,0
2016-10-10T04:44:30.714Z,0
2016-10-10T04:45:30.729Z,0
2016-10-10T04:46:30.748Z,0
2016-10-10T04:47:30.760Z,0
2016-10-10T04:48:30.775Z,0
2016-10-10T04:49:30.789Z,0
2016-10-10T04:50:30.810Z,0
2016-10-10T04:51:30.820Z,0
2016-10-10T04:52:30.842Z,0
2016-10-10T04:53:30.977Z,0
2016-10-10T04:54:31.322Z,0
2016-10-10T04:55:30.984Z,0
2016-10-10T04:56:30.931Z,0
2016-10-10T04:57:31.065Z,0
2016-10-10T04:58:31.044Z,0
2016-10-10T04:59:30.961Z,0
2016-10-10T05:00:31.093Z,0
2016-10-10T05:01:31.409Z,0
2016-10-10T05:02:31.100Z,0
2016-10-10T05:03:31.110Z,0
2016-10-10T05:04:31.542Z,0
2016-10-10T05:05:31.060Z,0
2016-10-10T05:06:31.077Z,0
2016-10-10T05:07:31.211Z,0
2016-10-10T05:08:31.111Z,0
2016-10-10T05:09:31.130Z,0
2016-10-10T05:10:31.144Z,0
2016-10-10T05:11:31.164Z,0
2016-10-10T05:12:31.176Z,0
2016-10-10T05:13:31.314Z,0
2016-10-10T05:14:31.219Z,0
2016-10-10T05:15:31.235Z,0
2016-10-10T05:16:31.362Z,0
2016-10-10T05:17:31.265Z,0
2016-10-10T05:18:31.295Z,0
2016-10-10T05:19:31.421Z,0
2016-10-10T05:20:31.314Z,0
2016-10-10T05:21:31.387Z,0
2016-10-10T05:22:31.445Z,0
2016-10-10T05:23:31.368Z,0
2016-10-10T05:24:31.389Z,0
2016-10-10T05:25:31.396Z,0
2016-10-10T05:26:31.412Z,0
2016-10-10T05:27:31.433Z,0
2016-10-10T05:28:31.444Z,0
2016-10-10T05:29:31.469Z,0
2016-10-10T05:30:31.485Z,0
2016-10-10T05:31:31.498Z,0
2016-10-10T05:32:31.515Z,0
2016-10-10T05:33:31.532Z,0
2016-10-10T05:34:31.547Z,0
2016-10-10T05:35:31.566Z,0
2016-10-10T05:36:31.579Z,0
2016-10-10T05:37:31.612Z,0
2016-10-10T05:38:31.721Z,0
2016-10-10T05:39:31.749Z,0
2016-10-10T05:40:31.656Z,0
2016-10-10T05:41:31.667Z,0
2016-10-10T05:42:31.746Z,0
2016-10-10T05:43:31.694Z,0
2016-10-10T05:44:31.750Z,0
2016-10-10T05:45:31.733Z,0
2016-10-10T05:46:31.755Z,0
2016-10-10T05:47:31.768Z,0
2016-10-10T05:48:32.002Z,0
2016-10-10T05:49:31.956Z,0
2016-10-10T05:50:31.894Z,0
2016-10-10T05:51:31.836Z,0
2016-10-10T05:52:31.852Z,0
2016-10-10T05:53:31.871Z,0
2016-10-10T05:54:31.888Z,0
2016-10-10T05:55:32.010Z,0
2016-10-10T05:56:32.139Z,0
2016-10-10T05:57:32.152Z,0
2016-10-10T05:58:32.139Z,0
2016-10-10T05:59:31.974Z,0
2016-10-10T06:00:31.982Z,0
2016-10-10T06:01:31.998Z,0
2016-10-10T06:02:32.036Z,0
2016-10-10T06:03:32.040Z,0
2016-10-10T06:04:32.046Z,0
2016-10-10T06:05:32.070Z,0
2016-10-10T06:06:32.091Z,0
2016-10-10T06:07:32.102Z,0
2016-10-10T06:08:32.116Z,0
2016-10-10T06:09:32.138Z,0
2016-10-10T06:10:32.225Z,0
2016-10-10T06:11:32.266Z,0
2016-10-10T06:12:32.295Z,0
2016-10-10T06:13:32.211Z,0
2016-10-10T06:14:32.215Z,0
2016-10-10T06:15:32.241Z,0
2016-10-10T06:16:32.320Z,0
2016-10-10T06:17:32.268Z,0
2016-10-10T06:18:32.298Z,0
2016-10-10T06:19:32.320Z,0
2016-10-10T06:20:32.336Z,0
2016-10-10T06:21:32.342Z,0
2016-10-10T06:22:32.350Z,0
2016-10-10T06:23:32.370Z,0
2016-10-10T06:24:32.383Z,5
2016-10-10T06:25:32.403Z,5
2016-10-10T06:26:32.420Z,5
2016-10-10T06:27:32.445Z,5
2016-10-10T06:28:32.461Z,5
2016-10-10T06:29:32.470Z,5
2016-10-10T06:30:32.487Z,5
2016-10-10T06:31:32.513Z,5
2016-10-10T06:32:32.521Z,5
2016-10-10T06:33:32.538Z,5
2016-10-10T06:34:32.555Z,5
2016-10-10T06:35:32.579Z,5
2016-10-10T06:36:32.588Z,5
2016-10-10T06:37:32.605Z,5
2016-10-10T06:38:32.629Z,5
2016-10-10T06:39:32.640Z,5
2016-10-10T06:40:32.653Z,5
2016-10-10T06:41:32.683Z,5
2016-10-10T06:42:32.692Z,5
2016-10-10T06:43:32.707Z,5
2016-10-10T06:44:32.718Z,5
2016-10-10T06:45:32.743Z,5
2016-10-10T06:46:32.752Z,5
2016-10-10T06:47:32.785Z,5
2016-10-10T06:48:32.788Z,5
2016-10-10T06:49:32.815Z,5
2016-10-10T06:50:32.828Z,5
2016-10-10T06:51:32.840Z,5
2016-10-10T06:52:32.855Z,5
2016-10-10T06:53:32.874Z,5
2016-10-10T06:54:32.897Z,5
2016-10-10T06:55:33.065Z,5
2016-10-10T06:56:32.925Z,5
2016-10-10T06:57:32.951Z,5
2016-10-10T06:58:32.974Z,5
2016-10-10T06:59:32.982Z,5
2016-10-10T07:00:32.993Z,5
2016-10-10T07:01:33.020Z,5
2016-10-10T07:02:33.032Z,5
2016-10-10T07:03:33.040Z,5
2016-10-10T07:04:33.064Z,5
2016-10-10T07:05:33.082Z,5
2016-10-10T07:06:33.096Z,5
2016-10-10T07:07:33.110Z,5
2016-10-10T07:08:33.252Z,5
2016-10-10T07:09:33.262Z,5
2016-10-10T07:10:33.240Z,5
2016-10-10T07:11:33.261Z,5
2016-10-10T07:12:33.193Z,10
2016-10-10T07:13:33.223Z,10
2016-10-10T07:14:33.230Z,10
2016-10-10T07:15:33.261Z,10
2016-10-10T07:16:33.279Z,10
2016-10-10T07:17:33.279Z,10
2016-10-10T07:18:33.299Z,10
2016-10-10T07:19:33.319Z,10
2016-10-10T07:20:33.333Z,10
2016-10-10T07:21:33.357Z,10
2016-10-10T07:22:33.723Z,10
2016-10-10T07:23:33.384Z,10
2016-10-10T07:24:33.405Z,10
2016-10-10T07:25:33.755Z,10
2016-10-10T07:26:33.444Z,10
2016-10-10T07:27:33.455Z,10
2016-10-10T07:28:33.469Z,10
2016-10-10T07:29:33.493Z,10
2016-10-10T07:30:33.570Z,10
2016-10-10T07:31:33.522Z,10
2016-10-10T07:32:33.538Z,10
2016-10-10T07:33:33.558Z,10
2016-10-10T07:34:33.581Z,10
2016-10-10T07:35:33.588Z,10
2016-10-10T07:36:33.606Z,10
2016-10-10T07:37:33.627Z,10
2016-10-10T07:38:33.638Z,10
2016-10-10T07:39:33.659Z,10
2016-10-10T07:40:33.679Z,10
2016-10-10T07:41:33.695Z,10
2016-10-10T07:42:33.716Z,10
2016-10-10T07:43:33.726Z,10
2016-10-10T07:44:33.747Z,10
2016-10-10T07:45:33.771Z,10
2016-10-10T07:46:33.776Z,10
2016-10-10T07:47:33.801Z,10
2016-10-10T07:48:33.821Z,10
2016-10-10T07:49:33.841Z,15
2016-10-10T07:50:33.840Z,15
2016-10-10T07:51:33.890Z,15
2016-10-10T07:52:33.877Z,15
2016-10-10T07:53:33.912Z,15
2016-10-10T07:54:33.917Z,15
2016-10-10T07:55:33.937Z,15
2016-10-10T07:56:33.956Z,15
2016-10-10T07:57:33.972Z,15
2016-10-10T07:58:33.989Z,15
2016-10-10T07:59:34.006Z,15
2016-10-10T08:00:34.025Z,15
2016-10-10T08:01:34.030Z,10
2016-10-10T08:02:34.078Z,15
2016-10-10T08:03:34.065Z,15
2016-10-10T08:04:34.103Z,10
2016-10-10T08:05:34.116Z,10
2016-10-10T08:06:34.124Z,10
2016-10-10T08:07:34.142Z,10
2016-10-10T08:08:34.160Z,10
2016-10-10T08:09:34.312Z,10
2016-10-10T08:10:34.512Z,15
2016-10-10T08:11:34.212Z,15
2016-10-10T08:12:34.233Z,15
2016-10-10T08:13:34.254Z,15
2016-10-10T08:14:34.270Z,15
2016-10-10T08:15:34.286Z,15
2016-10-10T08:16:34.303Z,15
2016-10-10T08:17:34.311Z,15
2016-10-10T08:18:34.660Z,15
2016-10-10T08:19:34.346Z,15
2016-10-10T08:20:34.381Z,15
2016-10-10T08:21:34.383Z,15
2016-10-10T08:22:34.402Z,20
2016-10-10T08:23:34.423Z,20
2016-10-10T08:24:34.441Z,20
2016-10-10T08:25:34.457Z,20
2016-10-10T08:26:34.473Z,20
2016-10-10T08:27:34.507Z,20
2016-10-10T08:28:34.522Z,20
2016-10-10T08:29:34.652Z,20
2016-10-10T08:30:34.543Z,20
2016-10-10T08:31:34.583Z,20
2016-10-10T08:32:34.691Z,20
2016-10-10T08:33:34.714Z,20
2016-10-10T08:34:34.684Z,20
2016-10-10T08:35:34.705Z,20
2016-10-10T08:36:35.001Z,20
2016-10-10T08:37:34.765Z,20
2016-10-10T08:38:34.777Z,20
2016-10-10T08:39:34.779Z,20
2016-10-10T08:40:34.799Z,20
2016-10-10T08:41:34.836Z,20
2016-10-10T08:42:34.844Z,20
2016-10-10T08:43:34.884Z,20
2016-10-10T08:44:34.876Z,20
2016-10-10T08:45:34.906Z,20
2016-10-10T08:46:34.846Z,20
2016-10-10T08:47:34.843Z,20
2016-10-10T08:48:34.869Z,20
2016-10-10T08:49:34.881Z,20
2016-10-10T08:50:34.895Z,20
2016-10-10T08:51:34.916Z,20
2016-10-10T08:52:34.931Z,20
2016-10-10T08:53:34.946Z,20
2016-10-10T08:54:34.971Z,20
2016-10-10T08:55:34.990Z,20
2016-10-10T08:56:35.003Z,20
2016-10-10T08:57:35.021Z,20
2016-10-10T08:58:35.043Z,20
2016-10-10T08:59:35.057Z,20
2016-10-10T09:00:35.075Z,20
2016-10-10T09:01:35.091Z,20
2016-10-10T09:02:35.115Z,20
2016-10-10T09:03:35.128Z,25
2016-10-10T09:04:35.150Z,25
2016-10-10T09:05:35.162Z,25
2016-10-10T09:06:35.202Z,25
2016-10-10T09:07:35.866Z,25
2016-10-10T09:08:35.246Z,25
2016-10-10T09:09:35.236Z,25
2016-10-10T09:10:35.257Z,25
2016-10-10T09:11:35.281Z,25
2016-10-10T09:12:35.293Z,25
2016-10-10T09:13:35.317Z,25
2016-10-10T09:14:35.447Z,25
2016-10-10T09:15:35.354Z,25
2016-10-10T09:16:35.369Z,25
2016-10-10T09:17:35.388Z,25
2016-10-10T09:18:35.596Z,25
2016-10-10T09:19:35.599Z,25
2016-10-10T09:20:35.603Z,25
2016-10-10T09:21:35.458Z,25
2016-10-10T09:22:35.797Z,25
2016-10-10T09:23:35.503Z,25
2016-10-10T09:24:35.520Z,20
2016-10-10T09:25:35.535Z,20
2016-10-10T09:26:35.557Z,25
2016-10-10T09:27:35.570Z,25
2016-10-10T09:28:35.735Z,25
2016-10-10T09:29:35.610Z,25
2016-10-10T09:30:35.639Z,25
2016-10-10T09:31:35.699Z,25
2016-10-10T09:32:35.707Z,25
2016-10-10T09:33:35.708Z,25
2016-10-10T09:34:35.721Z,25
2016-10-10T09:35:35.800Z,25
2016-10-10T09:36:35.738Z,25
2016-10-10T09:37:35.753Z,25
2016-10-10T09:38:35.770Z,25
2016-10-10T09:39:35.803Z,25
2016-10-10T09:40:35.809Z,25
2016-10-10T09:41:35.825Z,20
2016-10-10T09:42:35.845Z,25
2016-10-10T09:43:35.861Z,25
2016-10-10T09:44:35.896Z,30
2016-10-10T09:45:35.895Z,30
2016-10-10T09:46:36.232Z,25
2016-10-10T09:47:35.938Z,25
2016-10-10T09:48:35.965Z,25
2016-10-10T09:49:35.975Z,25
2016-10-10T09:50:36.002Z,25
2016-10-10T09:51:36.010Z,20
2016-10-10T09:52:36.038Z,20
2016-10-10T09:53:36.057Z,20
2016-10-10T09:54:36.072Z,20
2016-10-10T09:55:36.085Z,20
2016-10-10T09:56:36.112Z,20
2016-10-10T09:57:36.125Z,20
2016-10-10T09:58:36.147Z,20
2016-10-10T09:59:36.163Z,20
2016-10-10T10:00:36.309Z,20
2016-10-10T10:01:36.196Z,20
2016-10-10T10:02:36.220Z,20
2016-10-10T10:03:36.229Z,20
2016-10-10T10:04:36.259Z,25
2016-10-10T10:05:36.272Z,25
2016-10-10T10:06:36.292Z,25
2016-10-10T10:07:36.306Z,25
2016-10-10T10:08:36.334Z,25
2016-10-10T10:09:36.340Z,25
2016-10-10T10:10:36.373Z,25
2016-10-10T10:11:36.382Z,25
2016-10-10T10:12:36.402Z,25
2016-10-10T10:13:36.427Z,30
2016-10-10T10:14:36.449Z,30
2016-10-10T10:15:36.459Z,30
2016-10-10T10:16:36.793Z,30
2016-10-10T10:17:36.495Z,25
2016-10-10T10:18:36.522Z,25
2016-10-10T10:19:36.529Z,25
2016-10-10T10:20:36.558Z,25
2016-10-10T10:21:36.573Z,25
2016-10-10T10:22:36.597Z,25
2016-10-10T10:23:36.628Z,25
2016-10-10T10:24:36.628Z,25
2016-10-10T10:25:36.664Z,25
2016-10-10T10:26:36.668Z,25
2016-10-10T10:27:36.688Z,25
2016-10-10T10:28:36.703Z,25
2016-10-10T10:29:36.747Z,25
2016-10-10T10:30:36.740Z,25
2016-10-10T10:31:36.762Z,25
2016-10-10T10:32:36.780Z,25
2016-10-10T10:33:36.796Z,25
2016-10-10T10:34:36.824Z,25
2016-10-10T10:35:36.839Z,25
2016-10-10T10:36:36.994Z,25
2016-10-10T10:37:36.879Z,25
2016-10-10T10:38:36.888Z,25
2016-10-10T10:39:36.911Z,25
2016-10-10T10:40:36.934Z,20
2016-10-10T10:41:36.958Z,20
2016-10-10T10:42:36.978Z,20
2016-10-10T10:43:37.088Z,20
2016-10-10T10:44:37.003Z,20
2016-10-10T10:45:37.042Z,20
2016-10-10T10:46:37.049Z,20
2016-10-10T10:47:37.065Z,20
2016-10-10T10:48:37.083Z,20
2016-10-10T10:49:37.105Z,20
2016-10-10T10:50:37.125Z,15
2016-10-10T10:51:37.142Z,15
2016-10-10T10:52:37.166Z,15
2016-10-10T10:53:37.182Z,15
2016-10-10T10:54:37.215Z,15
2016-10-10T10:55:37.215Z,15
2016-10-10T10:56:37.244Z,10
2016-10-10T10:57:37.260Z,10
2016-10-10T10:58:37.276Z,10
2016-10-10T10:59:37.292Z,10
2016-10-10T11:00:37.318Z,10
2016-10-10T11:01:37.354Z,10
2016-10-10T11:02:37.357Z,10
2016-10-10T11:03:37.383Z,10
2016-10-10T11:04:37.401Z,10
2016-10-10T11:05:37.400Z,10
2016-10-10T11:06:37.434Z,15
2016-10-10T11:07:37.438Z,15
2016-10-10T11:08:37.477Z,15
2016-10-10T11:09:37.477Z,20
2016-10-10T11:10:37.511Z,15
2016-10-10T11:11:37.526Z,15
2016-10-10T11:12:37.542Z,15
2016-10-10T11:13:37.572Z,15
2016-10-10T11:14:37.596Z,10
2016-10-10T11:15:37.608Z,10
2016-10-10T11:16:37.621Z,15
2016-10-10T11:17:37.642Z,20
2016-10-10T11:18:37.661Z,20
2016-10-10T11:19:37.685Z,20
2016-10-10T11:20:37.716Z,20
2016-10-10T11:21:37.719Z,25
2016-10-10T11:22:37.756Z,25
2016-10-10T11:23:37.766Z,25
2016-10-10T11:24:37.779Z,25
2016-10-10T11:25:37.796Z,25
2016-10-10T11:26:37.817Z,15
2016-10-10T11:27:37.832Z,15
2016-10-10T11:28:37.853Z,15
2016-10-10T11:29:37.880Z,15
2016-10-10T11:30:37.895Z,15
2016-10-10T11:31:37.926Z,10
2016-10-10T11:32:37.933Z,10
2016-10-10T11:33:37.955Z,15
2016-10-10T11:34:37.975Z,10
2016-10-10T11:35:38.097Z,10
2016-10-10T11:36:38.106Z,10
2016-10-10T11:37:38.114Z,15
2016-10-10T11:38:38.123Z,15
2016-10-10T11:39:38.135Z,15
2016-10-10T11:40:38.130Z,15
2016-10-10T11:41:38.139Z,15
2016-10-10T11:42:38.211Z,15
2016-10-10T11:43:38.218Z,20
2016-10-10T11:44:38.217Z,20
2016-10-10T11:45:38.225Z,20
2016-10-10T11:46:38.234Z,15
2016-10-10T11:47:38.243Z,15
2016-10-10T11:48:38.251Z,15
2016-10-10T11:49:38.371Z,20
2016-10-10T11:50:38.377Z,20
2016-10-10T11:51:38.388Z,20
2016-10-10T11:52:38.394Z,20
2016-10-10T11:53:38.427Z,20
2016-10-10T11:54:38.425Z,20
2016-10-10T11:55:38.397Z,20
2016-10-10T11:56:38.402Z,20
2016-10-10T11:57:38.427Z,20
2016-10-10T11:58:38.441Z,25
2016-10-10T11:59:38.464Z,25
2016-10-10T12:00:38.491Z,25
2016-10-10T12:01:38.505Z,25
2016-10-10T12:02:38.525Z,25
2016-10-10T12:03:38.540Z,25
2016-10-10T12:04:38.556Z,30
2016-10-10T12:05:38.598Z,30
2016-10-10T12:06:38.603Z,30
2016-10-10T12:07:38.616Z,30
2016-10-10T12:08:38.644Z,30
2016-10-10T12:09:38.659Z,30
2016-10-10T12:10:38.675Z,30
2016-10-10T12:11:38.696Z,30
2016-10-10T12:12:38.723Z,35
2016-10-10T12:13:38.740Z,40
2016-10-10T12:14:38.761Z,40
2016-10-10T12:15:38.788Z,35
2016-10-10T12:16:38.811Z,35
2016-10-10T12:17:38.811Z,40
2016-10-10T12:18:38.832Z,40
2016-10-10T12:19:38.866Z,35
2016-10-10T12:20:38.889Z,35
2016-10-10T12:21:38.897Z,30
2016-10-10T12:22:38.933Z,30
2016-10-10T12:23:38.946Z,30
2016-10-10T12:24:38.981Z,30
2016-10-10T12:25:38.983Z,35
2016-10-10T12:26:38.998Z,35
2016-10-10T12:27:39.043Z,40
2016-10-10T12:28:39.048Z,40
2016-10-10T12:29:39.065Z,40
2016-10-10T12:30:39.077Z,40
2016-10-10T12:31:39.105Z,40
2016-10-10T12:32:39.123Z,40
2016-10-10T12:33:39.147Z,40
2016-10-10T12:34:39.174Z,40
2016-10-10T12:35:39.674Z,40
2016-10-10T12:36:39.202Z,40
2016-10-10T12:37:39.232Z,45
2016-10-10T12:38:39.248Z,45
2016-10-10T12:39:39.266Z,40
2016-10-10T12:40:39.283Z,40
2016-10-10T12:41:39.315Z,40
2016-10-10T12:42:39.326Z,40
2016-10-10T12:43:39.345Z,35
2016-10-10T12:44:39.369Z,35
2016-10-10T12:45:39.398Z,35
2016-10-10T12:46:40.414Z,30
2016-10-10T12:47:39.429Z,30
2016-10-10T12:48:39.455Z,30
2016-10-10T12:49:39.471Z,30
2016-10-10T12:50:39.495Z,30
2016-10-10T12:51:39.519Z,30
2016-10-10T12:52:39.546Z,30
2016-10-10T12:53:39.566Z,30
2016-10-10T12:54:39.579Z,30
2016-10-10T12:55:39.609Z,30
2016-10-10T12:56:39.617Z,30
2016-10-10T12:57:39.641Z,30
2016-10-10T12:58:39.661Z,30
2016-10-10T12:59:39.689Z,35
2016-10-10T13:00:39.740Z,30
2016-10-10T13:01:39.776Z,30
2016-10-10T13:02:39.751Z,30
2016-10-10T13:03:39.771Z,25
2016-10-10T13:04:39.809Z,25
2016-10-10T13:05:39.820Z,25
2016-10-10T13:06:39.851Z,25
2016-10-10T13:07:39.886Z,25
2016-10-10T13:08:39.887Z,20
2016-10-10T13:09:40.020Z,20
2016-10-10T13:10:40.038Z,20
2016-10-10T13:11:40.178Z,20
2016-10-10T13:12:40.185Z,20
2016-10-10T13:13:40.193Z,20
2016-10-10T13:14:40.201Z,15
2016-10-10T13:15:40.209Z,15
2016-10-10T13:16:40.217Z,15
2016-10-10T13:17:40.225Z,15
2016-10-10T13:18:40.225Z,15
2016-10-10T13:19:40.232Z,15
2016-10-10T13:20:40.244Z,15
2016-10-10T13:21:40.250Z,15
2016-10-10T13:22:40.396Z,15
2016-10-10T13:23:40.392Z,15
2016-10-10T13:24:40.310Z,15
2016-10-10T13:25:40.319Z,15
2016-10-10T13:26:40.326Z,15
2016-10-10T13:27:40.369Z,15
2016-10-10T13:28:40.399Z,15
2016-10-10T13:29:40.407Z,15
2016-10-10T13:30:40.417Z,15
2016-10-10T13:31:40.423Z,15
2016-10-10T13:32:40.423Z,15
2016-10-10T13:33:40.430Z,15
2016-10-10T13:34:40.441Z,15
2016-10-10T13:35:40.459Z,15
2016-10-10T13:36:40.493Z,10
2016-10-10T13:37:40.508Z,10
2016-10-10T13:38:40.526Z,10
2016-10-10T13:39:40.556Z,10
2016-10-10T13:40:40.571Z,10
2016-10-10T13:41:40.601Z,10
2016-10-10T13:42:40.612Z,10
2016-10-10T13:43:40.636Z,10
2016-10-10T13:44:40.661Z,10
2016-10-10T13:45:40.681Z,10
2016-10-10T13:46:40.694Z,10
2016-10-10T13:47:40.722Z,5
2016-10-10T13:48:40.745Z,5
2016-10-10T13:49:40.772Z,5
2016-10-10T13:50:41.186Z,5
2016-10-10T13:51:40.806Z,5
2016-10-10T13:52:40.831Z,5
2016-10-10T13:53:40.860Z,5
2016-10-10T13:54:40.886Z,5
2016-10-10T13:55:40.896Z,5
2016-10-10T13:56:40.922Z,5
2016-10-10T13:57:40.952Z,5
2016-10-10T13:58:40.973Z,5
2016-10-10T13:59:40.986Z,5
2016-10-10T14:00:41.003Z,5
2016-10-10T14:01:41.029Z,5
2016-10-10T14:02:41.046Z,5
2016-10-10T14:03:41.071Z,5
2016-10-10T14:04:41.089Z,5
2016-10-10T14:05:41.127Z,5
2016-10-10T14:06:41.134Z,5
2016-10-10T14:07:41.162Z,5
2016-10-10T14:08:41.178Z,5
2016-10-10T14:09:41.229Z,5
2016-10-10T14:10:41.217Z,5
2016-10-10T14:11:41.252Z,5
2016-10-10T14:12:41.272Z,5
2016-10-10T14:13:41.289Z,5
2016-10-10T14:14:41.308Z,5
2016-10-10T14:15:41.329Z,5
2016-10-10T14:16:41.352Z,5
2016-10-10T14:17:41.395Z,5
2016-10-10T14:18:41.399Z,5
2016-10-10T14:19:41.414Z,5
2016-10-10T14:20:41.448Z,5
2016-10-10T14:21:41.458Z,5
2016-10-10T14:22:41.485Z,5
2016-10-10T14:23:41.513Z,5
2016-10-10T14:24:41.525Z,5
2016-10-10T14:25:41.548Z,5
2016-10-10T14:26:41.584Z,5
2016-10-10T14:27:41.597Z,5
2016-10-10T14:28:41.608Z,5
2016-10-10T14:29:41.640Z,5
2016-10-10T14:30:41.674Z,5
2016-10-10T14:31:41.672Z,5
2016-10-10T14:32:41.690Z,5